Time;durP1;ratioP1;P1;durP2;ratioP2;P2;SDS_P1;SDS_P2;PMS_P1;PMS_P2;Temp;Humidity;BMP_temperature;BMP_pressure;BME280_temperature;BME280_humidity;BME280_pressure;Samples;Min_cycle;Max_cycle;Signal;HPM_P1;HPM_P2
2023/02/28 00:01:08;;;;;;;3.65;2.78;;;;;;;-1.00;53.76;97264.06;4996984;28;20042;-75
2023/02/28 00:03:36;;;;;;;3.35;2.83;;;;;;;-0.97;53.84;97269.00;4997332;28;20058;-75
2023/02/28 00:06:04;;;;;;;3.63;2.72;;;;;;;-0.95;54.11;97268.91;4996995;28;20057;-75
2023/02/28 00:08:32;;;;;;;3.35;2.60;;;;;;;-0.93;54.06;97265.34;4996204;28;20086;-75
2023/02/28 00:11:02;;;;;;;5.65;3.30;;;;;;;-0.94;54.13;97256.03;4997110;28;20141;-75
2023/02/28 00:13:29;;;;;;;3.70;2.60;;;;;;;-0.93;54.06;97254.28;4997061;28;20054;-75
2023/02/28 00:16:01;;;;;;;6.88;2.85;;;;;;;-0.95;54.68;97251.78;4996976;28;20081;-75
2023/02/28 00:18:30;;;;;;;3.67;2.67;;;;;;;-0.94;54.55;97255.19;4996191;28;20129;-74
2023/02/28 00:20:58;;;;;;;4.93;2.97;;;;;;;-0.94;54.51;97256.03;4996982;28;20058;-75
2023/02/28 00:23:26;;;;;;;4.78;3.05;;;;;;;-0.96;54.48;97255.28;4997109;28;20054;-75
2023/02/28 00:25:54;;;;;;;4.45;3.45;;;;;;;-0.98;54.62;97251.19;4996569;28;20108;-75
2023/02/28 00:28:22;;;;;;;4.70;3.30;;;;;;;-1.01;54.54;97247.03;4997498;28;20181;-75
2023/02/28 00:30:50;;;;;;;4.28;2.95;;;;;;;-1.03;54.85;97256.56;4998196;28;20093;-75
2023/02/28 00:33:17;;;;;;;6.20;3.60;;;;;;;-1.07;54.94;97255.13;5002412;28;20069;-75
2023/02/28 00:35:48;;;;;;;3.78;2.65;;;;;;;-1.10;55.39;97247.63;5006897;28;20081;-75
2023/02/28 00:38:16;;;;;;;5.10;3.50;;;;;;;-1.10;55.26;97242.50;4999878;28;20109;-75
2023/02/28 00:40:44;;;;;;;3.92;3.38;;;;;;;-1.09;55.36;97251.84;4997250;28;20112;-75
2023/02/28 00:43:11;;;;;;;5.47;3.50;;;;;;;-1.10;55.47;97243.31;4996877;28;20145;-75
2023/02/28 00:45:39;;;;;;;6.25;3.95;;;;;;;-1.07;55.65;97247.44;4996405;28;20122;-75
2023/02/28 00:48:06;;;;;;;6.47;3.50;;;;;;;-1.05;55.66;97250.72;4995857;28;20061;-75
2023/02/28 00:50:34;;;;;;;4.40;3.25;;;;;;;-1.04;55.59;97247.25;4996403;28;20125;-75
2023/02/28 00:53:03;;;;;;;4.50;3.83;;;;;;;-1.02;55.99;97242.84;4995984;28;20093;-75
2023/02/28 00:55:30;;;;;;;6.25;3.50;;;;;;;-1.00;55.67;97247.91;4996337;28;20046;-75
2023/02/28 00:57:58;;;;;;;4.85;3.88;;;;;;;-0.99;55.93;97250.34;4995660;28;20623;-75
2023/02/28 01:00:26;;;;;;;4.97;3.65;;;;;;;-0.97;56.04;97248.50;4996321;28;20050;-75
2023/02/28 01:02:53;;;;;;;3.97;3.53;;;;;;;-0.95;55.98;97249.25;4996058;28;20050;-75
2023/02/28 01:05:21;;;;;;;6.72;4.35;;;;;;;-0.93;55.83;97247.41;4996103;28;20138;-75
2023/02/28 01:07:48;;;;;;;7.00;4.03;;;;;;;-0.96;56.04;97239.94;4995528;28;20137;-75
2023/02/28 01:10:17;;;;;;;3.53;3.22;;;;;;;-0.96;56.10;97239.06;4995957;28;20056;-75
2023/02/28 01:12:45;;;;;;;4.70;3.50;;;;;;;-0.96;56.04;97242.50;4995794;28;20086;-75
2023/02/28 01:15:13;;;;;;;4.47;3.33;;;;;;;-0.95;56.28;97241.56;4996128;28;20050;-75
2023/02/28 01:17:40;;;;;;;4.97;3.78;;;;;;;-0.89;56.43;97245.50;4995897;28;20129;-75
2023/02/28 01:20:10;;;;;;;4.45;3.67;;;;;;;-0.85;56.38;97241.81;4995366;28;20077;-75
2023/02/28 01:22:37;;;;;;;6.35;4.10;;;;;;;-0.87;56.22;97244.47;4995671;28;20093;-75
2023/02/28 01:25:05;;;;;;;5.78;4.10;;;;;;;-0.86;56.09;97240.16;4996003;28;20141;-75
2023/02/28 01:27:35;;;;;;;6.13;3.72;;;;;;;-0.86;56.11;97246.09;4995550;28;20077;-75
2023/02/28 01:30:03;;;;;;;5.07;3.95;;;;;;;-0.87;56.21;97238.53;4995052;28;20485;-75
2023/02/28 01:32:30;;;;;;;7.05;3.80;;;;;;;-0.86;56.08;97251.22;4995755;28;20134;-75
2023/02/28 01:34:58;;;;;;;4.93;3.67;;;;;;;-0.85;56.26;97244.38;4995631;28;20427;-75
2023/02/28 01:37:25;;;;;;;5.00;3.80;;;;;;;-0.83;56.35;97245.13;4995461;28;20056;-75
2023/02/28 01:39:53;;;;;;;5.55;3.53;;;;;;;-0.82;56.23;97244.19;4994676;28;20054;-75
2023/02/28 01:42:21;;;;;;;5.55;4.03;;;;;;;-0.83;56.20;97234.88;4995172;28;20046;-75
2023/02/28 01:45:01;;;;;;;6.47;4.22;;;;;;;-0.85;56.62;97245.19;4995150;28;20050;-75
2023/02/28 01:47:35;;;;;;;7.30;4.28;;;;;;;-0.88;56.68;97237.69;4995328;28;20100;-75
2023/02/28 01:50:07;;;;;;;3.80;3.10;;;;;;;-0.90;56.68;97236.16;4994766;28;20085;-75
2023/02/28 01:52:35;;;;;;;5.13;3.75;;;;;;;-0.89;56.46;97238.63;4995083;28;20057;-75
2023/02/28 01:55:07;;;;;;;5.43;3.75;;;;;;;-0.89;56.62;97236.06;4995354;28;20133;-75
2023/02/28 01:57:38;;;;;;;5.00;4.33;;;;;;;-0.89;56.56;97241.19;4995294;28;20100;-74
2023/02/28 02:00:13;;;;;;;5.60;3.67;;;;;;;-0.87;56.83;97234.22;4994442;28;20052;-74
2023/02/28 02:02:43;;;;;;;4.55;3.53;;;;;;;-0.85;56.63;97232.41;4995286;28;20046;-75
2023/02/28 02:05:15;;;;;;;5.68;4.00;;;;;;;-0.84;56.81;97234.03;4995095;28;20076;-75
2023/02/28 02:07:46;;;;;;;5.80;4.10;;;;;;;-0.82;56.67;97230.56;4994506;28;20133;-75
2023/02/28 02:10:16;;;;;;;4.97;3.80;;;;;;;-0.83;56.88;97224.63;4994736;28;20077;-75
2023/02/28 02:13:06;;;;;;;4.18;3.78;;;;;;;-0.83;57.38;97214.38;4994755;28;20050;-75
2023/02/28 02:15:42;;;;;;;5.32;3.83;;;;;;;-0.84;57.18;97213.53;4994871;28;20050;-75
2023/02/28 02:18:21;;;;;;;6.32;3.90;;;;;;;-0.84;57.31;97218.66;4994116;28;20050;-75
2023/02/28 02:21:17;;;;;;;7.00;4.15;;;;;;;-0.88;57.67;97222.31;4994484;28;20050;-75
2023/02/28 02:24:30;;;;;;;6.75;3.95;;;;;;;-0.89;57.86;97220.69;4994616;28;20434;-74
2023/02/28 02:27:23;;;;;;;7.10;4.30;;;;;;;-0.89;57.60;97218.13;4994480;28;20053;-75
2023/02/28 02:30:16;;;;;;;5.03;4.35;;;;;;;-0.91;57.81;97219.97;4987232;28;20323;-75
2023/02/28 02:33:26;;;;;;;4.97;3.97;;;;;;;-0.93;57.91;97218.41;4994212;28;20050;-75
2023/02/28 02:35:57;;;;;;;6.05;4.03;;;;;;;-0.91;57.48;97214.84;4980082;28;20577;-75
2023/02/28 02:38:34;;;;;;;7.43;4.63;;;;;;;-0.90;57.81;97218.22;4994141;28;20058;-75
2023/02/28 02:41:09;;;;;;;6.18;4.47;;;;;;;-0.91;57.90;97219.97;4993880;28;20051;-74
2023/02/28 02:43:41;;;;;;;5.50;4.45;;;;;;;-0.95;57.62;97221.06;4995897;28;20528;-74
2023/02/28 02:46:16;;;;;;;7.78;5.40;;;;;;;-0.95;58.11;97220.25;4994673;28;20132;-74
2023/02/28 02:48:46;;;;;;;6.88;4.70;;;;;;;-0.95;57.78;97221.06;4994044;28;20416;-75
2023/02/28 02:51:18;;;;;;;6.35;4.38;;;;;;;-0.95;58.02;97221.06;4994232;28;20145;-75
2023/02/28 02:53:50;;;;;;;5.30;3.88;;;;;;;-0.96;58.01;97222.00;4994618;28;20423;-75
2023/02/28 02:56:21;;;;;;;7.70;3.95;;;;;;;-0.93;57.99;97219.22;4994067;28;20109;-75
2023/02/28 02:58:52;;;;;;;6.78;4.18;;;;;;;-0.90;58.21;97223.34;4993449;28;20344;-75
2023/02/28 03:01:27;;;;;;;5.78;4.43;;;;;;;-0.91;57.96;97219.97;4994368;28;20416;-75
2023/02/28 03:03:58;;;;;;;6.40;4.65;;;;;;;-0.91;58.15;97208.91;4994301;28;20132;-75
2023/02/28 03:06:27;;;;;;;7.85;5.10;;;;;;;-0.91;58.21;97217.41;4993489;28;20061;-75
2023/02/28 03:08:55;;;;;;;7.13;4.15;;;;;;;-0.90;58.46;97219.03;4991661;28;20069;-75
2023/02/28 03:11:23;;;;;;;6.40;5.07;;;;;;;-0.89;58.16;97214.75;4992283;28;20487;-75
2023/02/28 03:14:20;;;;;;;6.88;4.22;;;;;;;-0.87;59.05;97218.03;4992520;28;20053;-75
2023/02/28 03:17:04;;;;;;;5.57;4.40;;;;;;;-0.86;58.54;97219.69;5001818;28;20102;-75
2023/02/28 03:19:48;;;;;;;6.47;4.75;;;;;;;-0.87;58.84;97220.59;5007412;28;20064;-75
2023/02/28 03:22:27;;;;;;;7.18;5.03;;;;;;;-0.87;58.52;97216.28;4997273;28;20050;-75
2023/02/28 03:25:02;;;;;;;5.63;4.65;;;;;;;-0.85;58.30;97222.16;4998320;28;20078;-75
2023/02/28 03:27:31;;;;;;;8.35;5.20;;;;;;;-0.82;58.24;97221.13;4997949;28;20088;-75
2023/02/28 03:30:04;;;;;;;7.13;5.10;;;;;;;-0.81;58.34;97221.94;4997379;28;20053;-75
2023/02/28 03:32:36;;;;;;;9.60;4.82;;;;;;;-0.78;58.22;97219.22;4998291;28;20050;-75
2023/02/28 03:35:10;;;;;;;5.60;4.30;;;;;;;-0.76;58.32;97215.63;4999513;28;20274;-75
2023/02/28 03:37:43;;;;;;;8.20;4.25;;;;;;;-0.78;58.22;97214.91;4998798;28;20062;-75
2023/02/28 03:40:13;;;;;;;;;;;;;;;-0.76;58.67;97220.75;4997816;28;20074;-74
2023/02/28 03:42:45;;;;;;;7.70;4.95;;;;;;;-0.82;57.78;97220.31;4997584;28;20383;-74
2023/02/28 03:45:17;;;;;;;5.77;4.47;;;;;;;-0.90;58.09;97226.72;4997741;28;20057;-75
2023/02/28 03:47:51;;;;;;;6.65;4.80;;;;;;;-0.92;58.18;97225.16;4996901;28;20522;-75
2023/02/28 03:50:22;;;;;;;6.80;4.38;;;;;;;-0.97;58.21;97217.78;4997559;28;20109;-75
2023/02/28 03:53:00;;;;;;;7.45;5.30;;;;;;;-1.01;58.40;97226.56;4997366;28;20057;-75
2023/02/28 03:55:31;;;;;;;7.78;4.97;;;;;;;-1.07;58.24;97226.97;4997243;28;20142;-75
2023/02/28 03:58:06;;;;;;;5.47;4.50;;;;;;;-1.10;58.67;97217.72;4997115;28;20050;-75
2023/02/28 04:00:37;;;;;;;6.28;4.25;;;;;;;-1.11;58.43;97221.19;4997580;28;20518;-75
2023/02/28 04:03:05;;;;;;;7.28;5.03;;;;;;;-1.16;58.42;97228.34;4996902;28;20136;-75
2023/02/28 04:05:34;;;;;;;8.43;5.40;;;;;;;-1.21;58.40;97224.41;4997292;28;20059;-75
2023/02/28 04:08:07;;;;;;;7.25;4.95;;;;;;;-1.26;59.00;97238.31;4996755;28;20046;-75
2023/02/28 04:10:37;;;;;;;7.60;5.45;;;;;;;-1.28;58.70;97231.63;4997281;28;20058;-75
2023/02/28 04:13:05;;;;;;;7.28;5.28;;;;;;;-1.32;58.65;97233.56;4996830;28;20042;-75
2023/02/28 04:15:32;;;;;;;7.35;4.90;;;;;;;-1.34;58.67;97235.38;4997074;28;20117;-75
2023/02/28 04:18:00;;;;;;;9.45;6.30;;;;;;;-1.35;58.90;97243.97;4996089;28;20054;-74
2023/02/28 04:20:27;;;;;;;8.85;5.20;;;;;;;-1.38;58.94;97239.03;4997104;28;20054;-75
2023/02/28 04:22:55;;;;;;;8.82;5.25;;;;;;;-1.39;59.38;97237.41;4997053;28;20060;-75
2023/02/28 04:25:24;;;;;;;8.10;5.70;;;;;;;-1.37;59.22;97240.69;4996952;28;20054;-74
2023/02/28 04:27:51;;;;;;;9.93;6.10;;;;;;;-1.38;59.11;97239.03;4996220;28;20427;-75
2023/02/28 04:30:19;;;;;;;9.32;6.65;;;;;;;-1.38;59.28;97233.91;4996294;28;20496;-74
2023/02/28 04:32:48;;;;;;;8.65;6.13;;;;;;;-1.36;59.38;97241.50;4996878;28;20050;-74
2023/02/28 04:35:15;;;;;;;7.55;5.43;;;;;;;-1.37;59.36;97245.81;4996964;28;20046;-74
2023/02/28 04:37:43;;;;;;;7.57;5.78;;;;;;;-1.39;59.48;97246.81;4997124;28;20085;-74
2023/02/28 04:40:11;;;;;;;8.25;5.80;;;;;;;-1.42;59.53;97235.03;4996403;28;20050;-75
2023/02/28 04:42:42;;;;;;;7.85;6.05;;;;;;;-1.44;59.75;97236.88;4996289;28;20397;-75
2023/02/28 04:45:10;;;;;;;10.25;6.47;;;;;;;-1.48;59.58;97248.19;4994932;28;20046;-75
2023/02/28 04:47:38;;;;;;;8.65;5.85;;;;;;;-1.50;59.79;97239.78;4996083;28;20579;-75
2023/02/28 04:50:06;;;;;;;7.97;6.10;;;;;;;-1.49;59.76;97251.66;4994721;28;20114;-75
2023/02/28 04:52:33;;;;;;;9.75;6.72;;;;;;;-1.50;59.74;97247.44;4996527;28;20137;-75
2023/02/28 04:55:01;;;;;;;8.43;6.00;;;;;;;-1.51;59.92;97251.75;4995829;28;20157;-75
2023/02/28 04:57:29;;;;;;;7.63;6.05;;;;;;;-1.51;59.93;97249.19;5006885;28;20050;-75
2023/02/28 04:59:58;;;;;;;10.38;6.05;;;;;;;-1.52;60.07;97242.41;5038227;28;20030;-74
2023/02/28 05:02:26;;;;;;;9.52;6.60;;;;;;;-1.53;60.12;97250.19;5038434;28;20065;-74
2023/02/28 05:04:53;;;;;;;9.95;6.85;;;;;;;-1.52;60.11;97256.97;5037911;28;20061;-74
2023/02/28 05:07:21;;;;;;;8.60;6.00;;;;;;;-1.51;59.94;97258.59;5012257;28;20054;-74
2023/02/28 05:09:49;;;;;;;9.30;6.90;;;;;;;-1.51;60.09;97245.78;4995261;28;20491;-74
2023/02/28 05:12:16;;;;;;;9.05;6.80;;;;;;;-1.49;60.13;97246.53;4995477;28;20461;-74
2023/02/28 05:14:44;;;;;;;9.60;7.28;;;;;;;-1.48;60.23;97253.31;4996056;28;20110;-75
2023/02/28 05:17:13;;;;;;;10.98;7.53;;;;;;;-1.46;60.51;97254.03;4995537;28;20539;-75
2023/02/28 05:19:41;;;;;;;8.82;6.35;;;;;;;-1.46;60.27;97247.19;4994893;28;20485;-75
2023/02/28 05:22:14;;;;;;;8.95;6.30;;;;;;;-1.43;60.79;97245.34;4995358;28;20050;-74
2023/02/28 05:24:42;;;;;;;8.77;6.63;;;;;;;-1.40;60.30;97240.88;4996040;28;20050;-74
2023/02/28 05:27:10;;;;;;;9.23;7.32;;;;;;;-1.39;60.43;97252.75;4995136;28;20398;-77
2023/02/28 05:29:45;;;;;;;9.95;7.28;;;;;;;-1.39;60.28;97242.50;4994694;28;20140;-75
2023/02/28 05:32:14;;;;;;;11.15;7.85;;;;;;;-1.42;60.33;97250.38;4995432;28;20058;-75
2023/02/28 05:34:42;;;;;;;10.00;7.18;;;;;;;-1.44;60.04;97249.66;4995970;28;20428;-75
2023/02/28 05:37:13;;;;;;;9.75;7.53;;;;;;;-1.44;60.61;97244.53;5010056;28;20066;-74
2023/02/28 05:39:41;;;;;;;13.23;7.97;;;;;;;-1.41;60.29;97246.91;5007688;28;20050;-74
2023/02/28 05:42:09;;;;;;;10.45;7.00;;;;;;;-1.42;60.24;97258.06;4994765;28;20137;-75
2023/02/28 05:44:37;;;;;;;11.05;7.97;;;;;;;-1.41;60.32;97258.88;4995223;28;20047;-75
2023/02/28 05:47:04;;;;;;;12.68;7.70;;;;;;;-1.41;60.31;97262.25;4994887;28;20077;-75
2023/02/28 05:49:34;;;;;;;8.35;6.53;;;;;;;-1.44;60.44;97254.78;4993912;28;20527;-75
2023/02/28 05:52:01;;;;;;;9.80;7.57;;;;;;;-1.45;60.50;97242.88;4994450;28;20056;-74
2023/02/28 05:54:29;;;;;;;10.38;7.53;;;;;;;-1.46;60.48;97243.81;4995089;28;20078;-74
2023/02/28 05:56:56;;;;;;;12.10;7.75;;;;;;;-1.47;60.46;97249.81;4995191;28;20057;-74
2023/02/28 05:59:24;;;;;;;12.57;7.60;;;;;;;-1.45;60.59;97258.22;4996894;28;20073;-75
2023/02/28 06:01:52;;;;;;;10.52;7.75;;;;;;;-1.43;60.60;97251.28;5001995;28;20054;-74
2023/02/28 06:04:21;;;;;;;10.35;7.00;;;;;;;-1.42;60.50;97260.63;5032784;23;20419;-76
2023/02/28 06:07:00;;;;;;;10.75;7.32;;;;;;;-1.41;60.62;97252.03;5003327;28;20046;-75
2023/02/28 06:09:27;;;;;;;10.85;7.00;;;;;;;-1.46;60.45;97252.28;5001175;28;20056;-75
2023/02/28 06:11:55;;;;;;;12.98;8.73;;;;;;;-1.45;60.83;97268.47;5014208;28;20054;-76
2023/02/28 06:14:22;;;;;;;11.88;7.70;;;;;;;-1.43;60.79;97256.41;5007584;28;20042;-76
2023/02/28 06:16:50;;;;;;;11.13;7.32;;;;;;;-1.43;60.57;97273.50;4999384;28;20129;-76
2023/02/28 06:19:18;;;;;;;14.35;7.82;;;;;;;-1.41;60.59;97272.50;5012030;28;20516;-76
2023/02/28 06:21:46;;;;;;;14.85;9.07;;;;;;;-1.41;60.47;97275.06;5011909;28;20053;-76
2023/02/28 06:24:14;;;;;;;11.10;7.28;;;;;;;-1.43;60.57;97271.75;5011920;28;20419;-76
2023/02/28 06:26:42;;;;;;;12.70;7.57;;;;;;;-1.42;60.65;97278.53;5011780;28;20077;-76
2023/02/28 06:29:10;;;;;;;10.35;7.53;;;;;;;-1.44;60.65;97280.38;5011216;28;20056;-76
2023/02/28 06:31:39;;;;;;;12.13;8.05;;;;;;;-1.42;60.43;97285.38;5024542;28;20054;-76
2023/02/28 06:34:06;;;;;;;14.13;7.97;;;;;;;-1.42;60.59;97281.09;5034525;28;20310;-76
2023/02/28 06:36:34;;;;;;;11.98;8.55;;;;;;;-1.40;60.55;97281.84;5026994;28;20145;-76
2023/02/28 06:39:02;;;;;;;10.73;7.68;;;;;;;-1.41;60.42;97290.41;5015811;28;20503;-76
2023/02/28 06:41:30;;;;;;;11.52;7.93;;;;;;;-1.40;60.58;97284.41;5020185;28;20061;-76
2023/02/28 06:44:19;;;;;;;11.68;7.90;;;;;;;-1.40;60.40;97292.06;5016237;28;20488;-76
2023/02/28 06:46:46;;;;;;;11.52;7.68;;;;;;;-1.41;60.45;97289.59;5014298;28;20109;-76
2023/02/28 06:49:14;;;;;;;13.20;8.15;;;;;;;-1.42;60.30;97293.03;5013673;28;20054;-76
2023/02/28 06:51:44;;;;;;;11.25;7.97;;;;;;;-1.44;60.52;97293.16;5013208;28;20504;-75
2023/02/28 06:54:13;;;;;;;13.95;8.32;;;;;;;-1.43;60.66;97283.75;5030569;28;20081;-75
2023/02/28 06:56:41;;;;;;;11.98;7.72;;;;;;;-1.44;60.57;97290.59;5036255;28;20060;-76
2023/02/28 06:59:09;;;;;;;15.05;8.57;;;;;;;-1.43;60.76;97287.13;5018735;28;20419;-76
2023/02/28 07:01:38;;;;;;;13.20;8.48;;;;;;;-1.39;60.72;97287.75;5015141;28;20053;-76
2023/02/28 07:04:06;;;;;;;9.48;7.00;;;;;;;-1.34;60.64;97291.69;5013772;28;20485;-76
2023/02/28 07:06:34;;;;;;;12.88;9.25;;;;;;;-1.27;60.78;97292.13;5013411;28;20049;-76
2023/02/28 07:09:02;;;;;;;11.35;7.50;;;;;;;-1.20;60.70;97302.84;5012844;28;20065;-76
2023/02/28 07:11:29;;;;;;;12.23;8.23;;;;;;;-1.15;60.45;97300.84;5013479;28;20061;-76
2023/02/28 07:13:59;;;;;;;13.50;8.85;;;;;;;-1.13;60.01;97310.06;5013579;28;20140;-76
2023/02/28 07:16:27;;;;;;;11.70;8.05;;;;;;;-1.13;60.05;97299.03;5013373;28;20053;-76
2023/02/28 07:18:55;;;;;;;10.07;7.40;;;;;;;-1.11;59.98;97310.00;5012291;28;20050;-76
2023/02/28 07:21:23;;;;;;;11.05;7.45;;;;;;;-1.09;59.97;97321.78;5012807;28;20050;-76
2023/02/28 07:23:51;;;;;;;14.23;10.18;;;;;;;-1.08;60.17;97322.59;5012864;28;20453;-76
2023/02/28 07:26:20;;;;;;;13.60;9.05;;;;;;;-1.05;59.76;97328.38;5012999;28;20053;-76
2023/02/28 07:28:48;;;;;;;13.07;8.88;;;;;;;-1.03;59.56;97330.81;5012443;28;20058;-76
2023/02/28 07:31:18;;;;;;;12.75;8.95;;;;;;;-1.02;59.89;97332.47;5013127;28;20500;-76
2023/02/28 07:33:46;;;;;;;19.55;8.88;;;;;;;-0.98;59.99;97328.81;5012924;28;20595;-76
2023/02/28 07:36:17;;;;;;;14.50;8.80;;;;;;;-0.90;59.77;97326.59;5021141;28;20049;-77
2023/02/28 07:38:47;;;;;;;13.43;8.82;;;;;;;-0.80;59.56;97323.50;5025133;28;20046;-77
2023/02/28 07:41:16;;;;;;;14.32;8.57;;;;;;;-0.75;59.40;97327.41;5024373;28;20057;-76
2023/02/28 07:43:44;;;;;;;13.93;8.30;;;;;;;-0.65;59.01;97332.81;5015543;28;20046;-76
2023/02/28 07:46:15;;;;;;;11.48;8.50;;;;;;;-0.63;58.88;97326.69;5013397;28;20092;-76
2023/02/28 07:48:45;;;;;;;13.05;9.55;;;;;;;-0.55;58.77;97321.06;5012626;28;20092;-76
2023/02/28 07:51:13;;;;;;;11.88;8.38;;;;;;;-0.48;58.65;97331.75;5012538;28;20050;-76
2023/02/28 07:53:41;;;;;;;13.88;9.27;;;;;;;-0.32;58.38;97329.09;5013264;28;20057;-77
2023/02/28 07:56:10;;;;;;;11.48;8.20;;;;;;;-0.11;57.85;97330.31;5012877;28;20141;-76
2023/02/28 07:58:38;;;;;;;10.75;7.63;;;;;;;0.20;57.26;97324.03;5012244;28;20108;-76
2023/02/28 08:01:06;;;;;;;11.88;9.25;;;;;;;0.67;56.50;97326.13;5013008;28;20053;-76
2023/02/28 08:03:34;;;;;;;13.18;8.45;;;;;;;1.56;55.24;97325.19;5012441;28;20050;-76
2023/02/28 08:06:03;;;;;;;11.02;7.72;;;;;;;2.09;53.11;97333.41;5015358;28;20052;-76
2023/02/28 08:08:32;;;;;;;15.43;8.85;;;;;;;2.53;52.55;97329.34;5020319;28;20057;-77
2023/02/28 08:11:01;;;;;;;10.88;7.70;;;;;;;3.26;51.06;97341.03;5017377;28;20129;-76
2023/02/28 08:13:29;;;;;;;11.48;7.70;;;;;;;3.94;49.56;97334.94;5016237;28;20133;-77
2023/02/28 08:15:57;;;;;;;16.58;10.30;;;;;;;4.63;48.00;97326.75;5021133;28;20501;-77
2023/02/28 08:18:25;;;;;;;11.48;8.13;;;;;;;4.93;47.49;97326.00;5015619;28;20057;-76
2023/02/28 08:20:52;;;;;;;11.98;7.90;;;;;;;5.35;46.68;97320.72;5016552;28;20120;-77
2023/02/28 08:23:21;;;;;;;12.27;7.90;;;;;;;5.86;44.96;97329.28;5015793;28;20049;-76
2023/02/28 08:25:54;;;;;;;11.18;8.18;;;;;;;6.32;43.46;97331.25;5016190;28;20110;-76
2023/02/28 08:28:21;;;;;;;9.90;8.02;;;;;;;6.70;43.15;97326.97;5015483;28;20057;-76
2023/02/28 08:30:51;;;;;;;10.25;7.85;;;;;;;6.98;42.40;97334.84;5016417;28;20140;-76
2023/02/28 08:33:19;;;;;;;11.85;8.07;;;;;;;7.34;41.88;97328.00;5015924;28;20504;-77
2023/02/28 08:35:46;;;;;;;11.07;7.88;;;;;;;7.58;41.12;97330.06;5017878;28;20042;-77
2023/02/28 08:38:14;;;;;;;10.68;7.53;;;;;;;7.58;40.78;97319.69;5038477;28;20057;-76
2023/02/28 08:40:43;;;;;;;16.08;9.70;;;;;;;7.62;40.62;97320.22;5039514;28;20057;-79
2023/02/28 08:43:11;;;;;;;12.32;8.75;;;;;;;7.95;41.11;97320.56;5026470;28;20064;-76
2023/02/28 08:45:39;;;;;;;10.25;8.30;;;;;;;7.81;40.28;97322.72;5020562;28;20109;-76
2023/02/28 08:48:06;;;;;;;11.23;8.13;;;;;;;7.61;40.46;97313.41;5018273;28;20050;-76
2023/02/28 08:50:34;;;;;;;11.85;9.07;;;;;;;7.52;41.52;97322.88;5017965;28;20140;-76
2023/02/28 08:53:02;;;;;;;13.35;8.98;;;;;;;7.41;41.45;97334.28;5016511;28;20072;-76
2023/02/28 08:55:29;;;;;;;11.10;8.48;;;;;;;7.24;41.16;97329.84;5018958;28;20046;-79
2023/02/28 08:57:59;;;;;;;11.43;8.02;;;;;;;7.08;41.16;97330.44;5018089;28;20069;-78
2023/02/28 09:00:26;;;;;;;12.50;8.25;;;;;;;7.19;41.85;97334.63;5017403;28;20133;-78
2023/02/28 09:02:54;;;;;;;10.68;8.80;;;;;;;7.31;41.11;97328.31;5017710;28;20514;-79
2023/02/28 09:05:22;;;;;;;15.50;10.68;;;;;;;7.37;40.94;97330.34;5016186;28;20136;-78
2023/02/28 09:07:50;;;;;;;15.82;8.63;;;;;;;7.40;40.65;97327.44;5016075;28;20480;-78
2023/02/28 09:10:18;;;;;;;10.70;8.60;;;;;;;7.42;40.70;97328.13;5015869;28;20538;-78
2023/02/28 09:12:46;;;;;;;12.13;7.97;;;;;;;7.41;40.38;97331.69;5015876;28;20104;-78
2023/02/28 09:15:15;;;;;;;11.88;8.10;;;;;;;7.29;41.46;97335.41;5019378;28;20636;-79
2023/02/28 09:17:43;;;;;;;11.15;7.85;;;;;;;7.25;40.99;97331.47;5018890;28;20117;-77
2023/02/28 09:20:14;;;;;;;11.80;8.32;;;;;;;7.19;40.85;97337.22;5017063;28;20097;-79
2023/02/28 09:22:42;;;;;;;11.40;8.20;;;;;;;7.02;40.52;97331.00;5015055;28;20088;-79
2023/02/28 09:25:09;;;;;;;11.07;7.90;;;;;;;6.67;41.01;97349.75;5015429;28;20526;-79
2023/02/28 09:27:37;;;;;;;21.20;11.73;;;;;;;6.39;41.44;97332.34;5015349;28;20066;-78
2023/02/28 09:30:05;;;;;;;14.05;8.60;;;;;;;6.18;41.09;97337.66;5014300;28;20500;-76
2023/02/28 09:32:34;;;;;;;11.27;8.35;;;;;;;5.75;41.43;97338.81;5035513;28;20077;-79
2023/02/28 09:35:01;;;;;;;11.88;8.45;;;;;;;5.40;41.84;97328.06;5024897;28;20481;-78
2023/02/28 09:37:30;;;;;;;14.57;9.82;;;;;;;5.15;42.49;97332.75;5029605;28;20056;-79
2023/02/28 09:39:58;;;;;;;10.13;7.55;;;;;;;5.01;42.91;97335.66;5028597;28;20485;-79
2023/02/28 09:42:31;;;;;;;10.30;7.85;;;;;;;5.02;43.01;97335.56;5017690;28;20133;-78
2023/02/28 09:45:01;;;;;;;10.13;7.35;;;;;;;5.13;43.80;97337.22;5014891;28;20077;-78
2023/02/28 09:47:33;;;;;;;32.47;10.60;;;;;;;5.31;43.01;97340.88;5014906;28;20137;-79
2023/02/28 09:50:12;;;;;;;29.55;10.55;;;;;;;5.44;42.50;97332.03;5029634;28;20069;-79
2023/02/28 09:52:40;;;;;;;11.43;8.00;;;;;;;5.39;42.91;97340.19;5037546;28;20097;-78
2023/02/28 09:55:23;;;;;;;12.40;8.65;;;;;;;5.35;42.42;97331.06;5034562;28;20052;-79
2023/02/28 09:57:51;;;;;;;12.52;8.38;;;;;;;5.39;43.17;97334.22;5034261;28;20109;-78
2023/02/28 10:00:24;;;;;;;12.70;8.40;;;;;;;5.37;42.92;97336.94;5019195;28;20058;-78
2023/02/28 10:03:16;;;;;;;10.73;8.43;;;;;;;5.30;42.28;97346.16;5015659;28;20128;-78
2023/02/28 10:05:54;;;;;;;10.80;8.43;;;;;;;5.24;42.48;97346.69;5015137;28;20052;-78
2023/02/28 10:08:26;;;;;;;12.02;8.85;;;;;;;5.29;42.58;97349.69;5013860;28;20106;-79
2023/02/28 10:10:57;;;;;;;10.95;8.27;;;;;;;5.25;42.68;97343.16;5014656;28;20069;-78
2023/02/28 10:13:32;;;;;;;10.32;8.07;;;;;;;5.13;42.46;97350.16;5014651;28;20112;-78
2023/02/28 10:16:04;;;;;;;10.38;7.72;;;;;;;4.95;42.74;97355.13;5014834;28;20046;-78
2023/02/28 10:18:40;;;;;;;11.20;7.30;;;;;;;4.78;42.80;97351.34;5014380;28;20088;-79
2023/02/28 10:21:20;;;;;;;11.63;8.15;;;;;;;4.66;43.27;97354.94;5014388;28;20050;-78
2023/02/28 10:23:50;;;;;;;11.55;8.02;;;;;;;4.60;43.56;97352.88;5014290;28;20060;-78
2023/02/28 10:26:19;;;;;;;10.88;8.50;;;;;;;4.54;43.98;97349.00;5013874;28;20153;-78
2023/02/28 10:28:47;;;;;;;10.90;8.05;;;;;;;4.55;44.22;97348.06;5013330;28;20132;-78
2023/02/28 10:31:19;;;;;;;12.35;8.15;;;;;;;4.54;44.07;97352.41;5013988;28;20140;-78
2023/02/28 10:33:48;;;;;;;9.23;7.72;;;;;;;4.53;44.50;97352.56;5014304;28;20053;-78
2023/02/28 10:36:20;;;;;;;10.93;8.35;;;;;;;4.58;44.52;97354.75;5014442;28;20148;-78
2023/02/28 10:38:48;;;;;;;11.63;7.97;;;;;;;4.79;44.01;97337.47;5013411;28;20050;-78
2023/02/28 10:41:27;;;;;;;10.23;7.47;;;;;;;5.12;43.03;97344.19;5014108;28;20084;-79
2023/02/28 10:44:14;;;;;;;9.85;7.47;;;;;;;5.44;42.52;97342.38;5014117;28;20053;-78
2023/02/28 10:46:43;;;;;;;12.25;7.63;;;;;;;5.84;42.48;97346.72;5013783;28;20515;-79
2023/02/28 10:49:17;;;;;;;11.00;7.57;;;;;;;6.29;41.58;97354.03;5013259;28;20103;-78
2023/02/28 10:51:49;;;;;;;12.68;8.00;;;;;;;6.73;41.16;97357.00;5013765;28;20062;-79
2023/02/28 10:54:20;;;;;;;12.57;8.32;;;;;;;6.98;40.36;97353.81;5013742;28;20081;-79
2023/02/28 10:57:06;;;;;;;11.82;7.57;;;;;;;7.24;39.64;97355.78;5013280;28;20152;-79
2023/02/28 10:59:34;;;;;;;13.63;8.48;;;;;;;7.49;39.28;97343.94;5013398;28;20077;-79
2023/02/28 11:02:02;;;;;;;12.77;8.20;;;;;;;7.72;38.92;97343.53;5013550;28;20137;-79
2023/02/28 11:04:39;;;;;;;10.00;7.57;;;;;;;7.96;38.58;97342.97;5013334;28;20058;-79
2023/02/28 11:07:22;;;;;;;10.57;7.53;;;;;;;8.25;36.75;97346.19;5013360;28;20103;-79
2023/02/28 11:09:54;;;;;;;10.50;7.97;;;;;;;8.45;37.75;97338.28;5013194;28;20145;-79
2023/02/28 11:12:24;;;;;;;10.63;8.50;;;;;;;8.65;37.49;97347.53;5014571;28;20077;-79
2023/02/28 11:14:54;;;;;;;9.45;8.18;;;;;;;8.83;37.19;97341.47;5013508;28;20046;-79
2023/02/28 11:17:24;;;;;;;13.45;8.00;;;;;;;8.99;36.91;97339.00;5013533;28;20058;-79
2023/02/28 11:19:54;;;;;;;10.15;7.25;;;;;;;9.22;36.25;97339.28;5012661;28;20595;-79
2023/02/28 11:22:28;;;;;;;10.30;7.75;;;;;;;9.38;35.73;97332.50;5013227;28;20050;-79
2023/02/28 11:24:59;;;;;;;10.50;7.70;;;;;;;9.48;35.20;97328.81;5013060;28;20504;-79
2023/02/28 11:27:44;;;;;;;9.15;7.15;;;;;;;9.56;34.20;97329.84;5012837;28;20056;-79
2023/02/28 11:30:30;;;;;;;8.48;6.90;;;;;;;9.66;33.95;97335.72;5012927;28;20058;-79
2023/02/28 11:32:59;;;;;;;8.73;7.10;;;;;;;9.70;34.74;97332.63;5012617;28;20120;-79
2023/02/28 11:35:31;;;;;;;8.27;7.35;;;;;;;9.78;34.05;97334.47;5012787;28;20058;-79
2023/02/28 11:38:00;;;;;;;10.00;7.03;;;;;;;9.95;34.37;97334.50;5012050;28;20136;-79
2023/02/28 11:40:35;;;;;;;8.93;7.05;;;;;;;9.99;33.40;97320.16;5015414;28;20053;-79
2023/02/28 11:43:10;;;;;;;12.35;8.10;;;;;;;9.99;33.40;97330.59;5017247;28;20100;-79
2023/02/28 11:45:51;;;;;;;10.57;7.38;;;;;;;10.09;33.29;97328.66;5017108;28;20443;-79
2023/02/28 11:48:23;;;;;;;13.57;7.68;;;;;;;10.16;32.96;97332.25;5016352;28;20411;-79